Bryan's Hourly Summary for Saturday, July 7, 2018
Hour Temp
(f)
RH
(%)
Solar Rad.
(MJ/m2)
Rainfall
(in)
Wind
(mph)
7/7/2018 12:00 AM 77 82 0 0 0.19
7/7/2018 1:00 AM 76 82 0 0 0.05
7/7/2018 2:00 AM 76 85 0 0 1.14
7/7/2018 3:00 AM 76 86 0 0 0.59
7/7/2018 4:00 AM 75 86 0 0 0
7/7/2018 5:00 AM 74 89 0 0 0
7/7/2018 6:00 AM 74 89 0 0 0
7/7/2018 7:00 AM 74 91 0.04 0 0.01
7/7/2018 8:00 AM 75 88 0.26 0 0.17
7/7/2018 9:00 AM 77 84 0.62 0 1.09
7/7/2018 10:00 AM 79 75 1.24 0 0.45
7/7/2018 11:00 AM 83 64 2.12 0 1.1
7/7/2018 12:00 PM 86 58 2.11 0 1.68
7/7/2018 1:00 PM 80 57 1.09 0 8.07
7/7/2018 2:00 PM 78 69 1.94 0 7.24
7/7/2018 3:00 PM 76 72 0.32 0.35 4.32
7/7/2018 4:00 PM 73 94 0.13 0.3 4.88
7/7/2018 5:00 PM 73 95 0.13 0.02 1.47
7/7/2018 6:00 PM 73 95 0.12 0.01 0.18
7/7/2018 7:00 PM 73 96 0.12 0.01 0
7/7/2018 8:00 PM 74 96 0.11 0.01 0
7/7/2018 9:00 PM 74 96 0.02 0 1.18
7/7/2018 10:00 PM 74 96 0 0 0.06
7/7/2018 11:00 PM 73 96 0 0 0
Data Summary 75 84 10.37 0.70 1.41